Latest Weather Observations for Cunderdin Airport

IDW60801

Issued at 11:43 pm WST Sunday 19 January 2020 (issued every 10 minutes, with the page automatically refreshed every 10 minutes)

About weather observations | Map of weather stations | Latest weather observations for WA | Other Formats
Station Details ID: 010286 Name: CUNDERDIN AIRFIELD Lat: -31.62 Lon: 117.22 Height: 216.7 m
Data from the previous 72 hours. | See also: Recent months at Cunderdin Airport
Date/Time
WST
Temp
°C
App
Temp
°C
Dew
Point
°C
Rel
Hum
%
Delta-T
°C
Wind Press
QNH
hPa
Press
MSL
hPa
Rain since
9am
mm
Dir  Spd
km/h
Gust
km/h
Spd
kts
Gust
kts
19/11:30pm 20.4 17.4 2.3 30 8.5 ESE 7 9 4 5 1012.9 1011.7 0.0
19/11:00pm 23.4 20.1 2.3 25 10.1 SE 9 13 5 7 1013.1 1011.9 0.0
19/10:30pm 23.8 20.1 2.6 25 10.3 SE 11 13 6 7 1013.4 1012.2 0.0
19/10:00pm 23.9 20.7 3.2 26 10.1 SE 9 13 5 7 1013.5 1012.3 0.0
19/09:30pm 24.2 21.1 3.5 26 10.2 SE 9 11 5 6 1013.5 1012.3 0.0
19/09:00pm 24.7 21.6 3.4 25 10.5 SE 9 11 5 6 1013.6 1012.4 0.0
19/08:30pm 25.2 22.1 3.8 25 10.7 SSE 9 11 5 6 1013.5 1012.3 0.0
19/08:00pm 25.8 22.3 3.7 24 11.1 SSE 11 13 6 7 1013.5 1012.3 0.0
19/07:30pm 26.9 24.3 4.0 23 11.6 SE 7 11 4 6 1013.4 1012.2 0.0
19/07:00pm 28.4 25.4 4.0 21 12.5 SE 9 13 5 7 1013.2 1012.0 0.0
19/06:30pm 29.1 26.1 3.9 20 12.9 SE 9 13 5 7 1013.0 1011.8 0.0
19/06:00pm 29.9 26.1 3.8 19 13.4 SE 13 20 7 11 1012.9 1011.7 0.0
19/05:30pm 30.0 26.3 4.6 20 13.3 SE 13 20 7 11 1012.8 1011.6 0.0
19/05:00pm 30.7 27.4 4.4 19 13.7 SSE 11 20 6 11 1012.7 1011.5 0.0
19/04:30pm 30.6 27.3 4.4 19 13.7 SSE 11 17 6 9 1012.9 1011.7 0.0
19/04:00pm 30.0 27.0 3.9 19 13.5 SSE 9 20 5 11 1013.2 1012.0 0.0
19/03:30pm 29.8 25.3 4.4 20 13.2 E 17 28 9 15 1013.4 1012.2 0.0
19/03:00pm 29.8 25.5 5.1 21 13.0 E 17 30 9 16 1013.6 1012.4 0.0
19/02:30pm 29.4 25.8 4.8 21 12.8 E 13 22 7 12 1013.9 1012.7 0.0
19/02:00pm 28.4 25.0 5.9 24 11.9 E 13 24 7 13 1014.5 1013.2 0.0
19/01:30pm 28.4 23.9 5.9 24 11.9 ENE 19 26 10 14 1014.9 1013.6 0.0
19/01:00pm 27.2 23.2 6.6 27 10.9 ENE 17 24 9 13 1015.5 1014.3 0.0
19/12:30pm 26.8 22.3 6.2 27 10.8 E 19 32 10 17 1015.8 1014.6 0.0
19/12:00pm 25.5 20.9 6.7 30 9.9 ENE 20 30 11 16 1016.3 1015.1 0.0
19/11:30am 25.8 20.8 7.9 32 9.7 ENE 24 39 13 21 1016.8 1015.6 0.0
19/11:00am 23.8 19.4 7.4 35 8.7 E 20 32 11 17 1017.2 1016.0 0.0
19/10:30am 23.3 18.7 8.2 38 8.1 E 22 33 12 18 1017.6 1016.4 0.0
19/10:00am 22.2 16.9 8.3 41 7.4 E 26 39 14 21 1018.1 1016.9 0.0
19/09:30am 21.5 15.9 8.7 44 6.8 E 28 37 15 20 1018.4 1017.2 0.0
19/09:00am 20.1 14.1 8.8 48 6.0 ENE 30 41 16 22 1018.6 1017.4 0.0
19/08:30am 19.5 13.2 8.8 50 5.7 E 32 41 17 22 1019.0 1017.9 0.0
19/08:00am 18.8 12.5 9.0 53 5.2 E 32 46 17 25 1019.3 1018.1 0.0
19/07:30am 17.7 11.4 8.8 56 4.7 E 32 44 17 24 1019.1 1018.0 0.0
19/07:00am 16.6 10.8 9.3 62 3.8 E 30 43 16 23 1019.3 1018.1 0.0
19/06:56am 16.5 11.0 9.2 62 3.8 E 28 43 15 23 1019.3 1018.1 0.0
19/06:30am 15.7 12.2 8.9 64 3.5 ESE 17 24 9 13 1019.0 1017.9 0.0
19/06:00am 14.7 11.5 8.4 66 3.2 ESE 15 22 8 12 1018.8 1017.6 0.0
19/05:30am 14.3 10.7 8.3 67 3.0 ESE 17 20 9 11 1018.5 1017.3 0.0
19/05:00am 14.6 11.4 8.3 66 3.2 ESE 15 20 8 11 1018.4 1017.2 0.0
19/04:30am 15.0 11.0 8.3 64 3.4 E 19 26 10 14 1018.2 1017.0 0.0
19/04:00am 15.2 11.0 8.2 63 3.6 ESE 20 32 11 17 1017.7 1016.5 0.0
19/03:30am 15.5 10.9 8.3 62 3.7 E 22 32 12 17 1017.5 1016.3 0.0
19/03:00am 15.8 11.7 8.5 62 3.7 E 20 30 11 16 1017.4 1016.2 0.0
19/02:30am 16.0 11.9 8.7 62 3.8 E 20 30 11 16 1017.2 1016.0 0.0
19/02:00am 16.4 12.4 8.9 61 3.9 ESE 20 30 11 16 1017.2 1016.0 0.0
19/01:30am 16.9 11.7 8.8 59 4.2 ESE 26 35 14 19 1017.1 1015.9 0.0
19/01:00am 17.4 12.1 8.5 56 4.6 ESE 26 39 14 21 1017.0 1015.8 0.0
19/12:45am 17.7 11.7 8.6 55 4.7 ESE 30 48 16 26 1017.1 1015.9 0.0
19/12:30am 18.0 12.7 8.6 54 4.9 ESE 26 43 14 23 1017.1 1015.9 0.0
19/12:00am 18.6 13.2 8.0 50 5.5 ESE 26 37 14 20 1017.4 1016.2 0.0
 
Date/Time
WST
Temp
°C
App
Temp
°C
Dew
Point
°C
Rel
Hum
%
Delta-T
°C
Wind Press
QNH
hPa
Press
MSL
hPa
Rain since
9am
mm
Dir  Spd
km/h
Gust
km/h
Spd
kts
Gust
kts
18/11:38pm 19.2 13.4 7.9 48 5.9 ESE 28 46 15 25 1017.3 1016.1 0.0
18/11:30pm 19.5 12.9 7.9 47 6.0 ESE 32 43 17 23 1017.2 1016.0 0.0
18/11:07pm 20.2 14.3 7.6 44 6.5 ESE 28 46 15 25 1017.2 1016.0 0.0
18/11:00pm 20.5 15.4 7.5 43 6.7 ESE 24 35 13 19 1017.2 1016.0 0.0
18/10:30pm 21.5 16.2 6.6 38 7.7 ESE 24 33 13 18 1016.9 1015.7 0.0
18/10:00pm 22.3 17.2 6.1 35 8.3 ESE 22 35 12 19 1016.7 1015.5 0.0
18/09:30pm 23.0 17.5 5.9 33 8.7 ESE 24 35 13 19 1016.4 1015.2 0.0
18/09:00pm 23.8 19.2 6.6 33 8.9 ESE 20 28 11 15 1015.8 1014.6 0.0
18/08:30pm 24.5 19.7 5.8 30 9.6 ESE 20 28 11 15 1015.3 1014.1 0.0
18/08:00pm 25.5 20.4 6.2 29 10.1 ESE 22 32 12 17 1014.8 1013.5 0.0
18/07:30pm 26.2 21.0 5.7 27 10.7 ESE 22 33 12 18 1014.3 1013.1 0.0
18/07:00pm 27.4 22.0 4.5 23 11.7 SE 22 30 12 16 1013.9 1012.7 0.0
18/06:30pm 28.4 23.0 4.6 22 12.3 SE 22 35 12 19 1013.5 1012.3 0.0
18/06:00pm 29.0 23.6 4.5 21 12.7 SE 22 32 12 17 1013.3 1012.1 0.0
18/05:30pm 29.5 24.0 4.2 20 13.1 SE 22 30 12 16 1013.0 1011.8 0.0
18/05:00pm 30.1 24.6 4.0 19 13.5 SE 22 39 12 21 1012.9 1011.7 0.0
18/04:30pm 30.3 25.2 4.1 19 13.6 ESE 20 33 11 18 1013.0 1011.8 0.0
18/04:00pm 30.1 24.7 4.7 20 13.3 SSE 22 32 12 17 1013.1 1011.9 0.0
18/03:30pm 30.1 24.9 5.4 21 13.1 SE 22 33 12 18 1013.2 1012.0 0.0
18/03:00pm 30.0 25.6 7.2 24 12.4 SE 20 32 11 17 1013.4 1012.2 0.0
18/02:30pm 29.3 24.5 8.9 28 11.4 SSE 24 35 13 19 1013.5 1012.3 0.0
18/02:00pm 28.4 23.9 10.1 32 10.4 ESE 24 37 13 20 1013.7 1012.5 0.0
18/01:30pm 29.2 24.9 10.8 32 10.6 ESE 24 39 13 21 1013.8 1012.6 0.0
18/01:00pm 27.8 23.4 10.5 34 9.8 SE 24 35 13 19 1014.1 1012.9 0.0
18/12:30pm 27.8 23.1 10.5 34 9.8 SE 26 35 14 19 1014.6 1013.3 0.0
18/12:08pm 26.7 21.5 10.4 36 9.2 SE 28 50 15 27 1014.7 1013.4 0.0
18/12:00pm 26.6 22.2 10.3 36 9.2 SE 24 41 13 22 1014.8 1013.5 0.0
18/11:30am 25.9 20.8 10.5 38 8.7 SE 28 39 15 21 1015.1 1013.9 0.0
18/11:00am 26.1 21.4 10.7 38 8.7 SE 26 35 14 19 1015.2 1014.0 0.0
18/10:30am 25.3 21.4 10.7 40 8.2 SE 22 33 12 18 1015.5 1014.3 0.0
18/10:00am 23.6 18.3 11.3 46 6.9 SE 30 39 16 21 1015.6 1014.4 0.0
18/09:30am 22.6 18.5 11.4 49 6.3 ESE 24 35 13 19 1015.8 1014.6 0.0
18/09:00am 22.0 17.2 11.7 52 5.8 SE 28 39 15 21 1015.7 1014.5 1.0
18/08:30am 21.4 16.6 11.7 54 5.5 SE 28 39 15 21 1015.7 1014.5 1.0
18/08:00am 20.7 16.7 11.9 57 5.0 SE 24 35 13 19 1015.7 1014.5 1.0
18/07:30am 19.8 14.3 12.3 62 4.2 SE 33 44 18 24 1015.6 1014.4 1.0
18/07:00am 19.8 15.9 13.3 66 3.7 SE 26 39 14 21 1015.3 1014.1 1.0
18/06:30am 19.0 16.0 13.8 72 3.0 SE 22 32 12 17 1015.0 1013.8 1.0
18/06:00am 18.7 15.4 14.0 74 2.7 SE 24 33 13 18 1014.7 1013.4 1.0
18/05:30am 19.2 15.6 14.2 73 2.9 SE 26 35 14 19 1014.3 1013.1 1.0
18/05:00am 19.5 17.3 14.3 72 3.0 SE 19 28 10 15 1014.0 1012.8 1.0
18/04:30am 19.6 17.1 14.0 70 3.3 SE 20 30 11 16 1013.7 1012.5 1.0
18/04:00am 19.6 16.3 14.0 70 3.3 SE 24 35 13 19 1013.3 1012.1 1.0
18/03:30am 19.5 16.3 14.3 72 3.0 SE 24 33 13 18 1012.9 1011.7 1.0
18/03:00am 19.7 17.5 14.5 72 3.1 SE 19 33 10 18 1012.6 1011.4 1.0
18/02:30am 19.8 17.0 14.4 71 3.2 SE 22 33 12 18 1012.3 1011.1 1.0
18/02:00am 19.8 16.7 14.4 71 3.2 SSE 24 33 13 18 1012.0 1010.8 1.0
18/01:30am 20.1 17.4 14.5 70 3.3 SE 22 32 12 17 1012.1 1010.9 1.0
18/01:00am 20.5 15.7 14.6 69 3.5 SSE 33 46 18 25 1012.1 1010.9 1.0
18/12:30am 21.2 17.4 14.8 67 3.8 SSE 28 39 15 21 1012.4 1011.2 1.0
18/12:00am 21.9 18.6 15.0 65 4.1 SE 26 35 14 19 1012.6 1011.4 1.0
 
Date/Time
WST
Temp
°C
App
Temp
°C
Dew
Point
°C
Rel
Hum
%
Delta-T
°C
Wind Press
QNH
hPa
Press
MSL
hPa
Rain since
9am
mm
Dir  Spd
km/h
Gust
km/h
Spd
kts
Gust
kts
17/11:30pm 22.9 19.7 15.2 62 4.6 SE 26 35 14 19 1012.5 1011.3 1.0
17/11:00pm 23.4 20.3 15.5 61 4.8 SE 26 35 14 19 1012.3 1011.1 1.0
17/10:30pm 24.4 20.9 15.6 58 5.4 SE 28 35 15 19 1011.9 1010.7 1.0
17/10:00pm 25.0 22.3 15.6 56 5.7 SSE 24 35 13 19 1011.4 1010.2 1.0
17/09:30pm 25.9 22.8 15.6 53 6.3 SSE 26 37 14 20 1010.9 1009.7 1.0
17/09:09pm 25.5 21.8 14.9 52 6.4 WSW 28 54 15 29 1010.3 1009.0 1.0
17/09:00pm 24.8 22.2 13.7 50 6.6 WSW 20 28 11 15 1010.3 1009.0 1.0
17/08:30pm 24.9 22.1 12.5 46 7.2 W 19 20 10 11 1009.8 1008.5 1.0
17/08:00pm 26.2 23.2 11.9 41 8.3 W 19 22 10 12 1009.4 1008.2 1.0
17/07:30pm 27.3 24.0 11.7 37 9.0 W 20 26 11 14 1009.2 1008.0 1.0
17/07:00pm 28.7 25.6 13.4 39 9.2 WNW 22 30 12 16 1008.9 1007.7 1.0
17/06:30pm 29.5 27.1 14.5 40 9.2 WNW 20 26 11 14 1008.9 1007.7 1.0
17/06:00pm 30.2 27.9 14.7 39 9.5 W 20 26 11 14 1008.5 1007.3 1.0
17/05:30pm 29.4 27.7 16.2 44 8.3 WNW 20 26 11 14 1008.6 1007.4 1.0
17/05:00pm 29.4 28.5 15.9 44 8.4 WNW 15 20 8 11 1008.7 1007.5 1.0
17/04:30pm 27.9 27.2 16.5 50 7.1 W 15 20 8 11 1008.8 1007.6 1.0
17/04:00pm 27.5 26.3 17.1 53 6.6 W 19 22 10 12 1009.0 1007.8 1.0
17/03:30pm 26.6 26.1 18.7 62 5.1 WSW 19 26 10 14 1009.7 1008.4 1.0
17/03:00pm 25.8 24.8 18.0 62 5.0 WSW 20 26 11 14 1010.0 1008.7 1.0
17/02:30pm 24.5 23.8 18.2 68 4.0 SW 19 24 10 13 1010.3 1009.0 1.0
17/02:00pm 22.8 23.1 18.8 78 2.6 W 15 19 8 10 1010.6 1009.3 0.8
17/01:30pm 23.0 22.5 17.7 72 3.3 WSW 17 26 9 14 1011.3 1010.1 0.6
17/01:00pm 23.0 22.8 19.8 82 2.1 SW 20 24 11 13 1011.0 1009.8 0.2
17/12:30pm 24.9 25.3 19.1 70 3.7 SW 15 20 8 11 1011.3 1010.1 0.0
17/12:00pm 25.2 26.3 17.9 64 4.6 SSW 9 13 5 7 1011.3 1010.1 0.0
17/11:30am 25.2 25.1 17.9 64 4.6 S 15 19 8 10 1011.1 1009.9 0.0
17/11:00am 27.1 25.9 16.1 51 6.8 S 17 20 9 11 1011.0 1009.8 0.0
17/10:30am 28.1 27.5 15.7 46 7.7 SSE 13 20 7 11 1010.6 1009.3 0.0
17/10:00am 27.5 25.1 15.5 48 7.4 S 22 28 12 15 1010.7 1009.4 0.0
17/09:30am 27.6 25.8 15.6 48 7.4 S 19 22 10 12 1010.9 1009.7 0.0
17/09:00am 27.4 25.4 15.4 48 7.4 SSW 20 26 11 14 1010.7 1009.4 0.0
17/08:30am 28.2 26.6 15.1 44 8.0 S 17 20 9 11 1010.7 1009.4 0.0
17/08:00am 25.8 24.3 15.2 52 6.5 S 17 22 9 12 1011.0 1009.8 0.0
17/07:30am 25.8 25.0 15.2 52 6.5 SSE 13 17 7 9 1010.5 1009.2 0.0
17/07:00am 25.1 24.3 15.1 53 6.1 S 13 19 7 10 1010.5 1009.2 0.0
17/06:30am 24.7 24.3 15.1 55 5.8 SSE 11 13 6 7 1010.1 1008.8 0.0
17/06:00am 24.5 24.5 15.1 55 5.7 SSE 9 11 5 6 1009.9 1008.6 0.0
17/05:30am 24.8 24.8 15.1 54 5.9 SE 9 15 5 8 1009.8 1008.5 0.0
17/05:00am 25.1 24.3 15.1 53 6.1 SE 13 17 7 9 1009.4 1008.2 0.0
17/04:30am 25.6 24.4 15.0 52 6.4 ESE 15 20 8 11 1009.2 1008.0 0.0
17/04:00am 25.9 24.8 15.3 52 6.5 ESE 15 20 8 11 1009.2 1008.0 0.0
17/03:30am 25.9 25.1 15.0 51 6.6 ESE 13 22 7 12 1009.1 1007.9 0.0
17/03:00am 26.0 25.2 15.1 51 6.6 ESE 13 20 7 11 1009.1 1007.9 0.0
17/02:30am 26.1 25.2 14.9 50 6.8 ESE 13 20 7 11 1009.1 1007.9 0.0
17/02:00am 26.5 24.9 14.9 49 7.1 ESE 17 24 9 13 1009.4 1008.2 0.0
17/01:30am 27.0 25.4 15.1 48 7.3 ESE 17 28 9 15 1009.6 1008.3 0.0
17/01:00am 27.6 25.6 14.9 45 7.8 ESE 19 28 10 15 1009.7 1008.4 0.0
17/12:30am 28.1 26.9 15.1 45 8.0 ESE 15 20 8 11 1010.0 1008.7 0.0
17/12:00am 28.4 27.2 15.0 44 8.2 ESE 15 19 8 10 1010.1 1008.8 0.0

Other formats

Comma delimited format used in spreadsheet applications
http://www.bom.gov.au/fwo/IDW60801/IDW60801.95625.axf

JavaScript Object Notation format (JSON) in row-major order
http://www.bom.gov.au/fwo/IDW60801/IDW60801.95625.json

Data quality

Most of these data are generated automatically and are frequently updated. Quality checks on data are not normally performed. It is possible for incorrect values to appear. Refer to information at About Latest Weather Observations and please check the disclaimer before using these data.